sensor_id;sensor_type;location;lat;lon;timestamp;P1;durP1;ratioP1;P2;durP2;ratioP2
10537;SDS011;5317;49.048;8.468;2022-07-15T00:00:06;2.87;;;2.53;;
10537;SDS011;5317;49.048;8.468;2022-07-15T00:02:35;3.70;;;2.47;;
10537;SDS011;5317;49.048;8.468;2022-07-15T00:05:02;3.57;;;2.70;;
10537;SDS011;5317;49.048;8.468;2022-07-15T00:07:35;2.60;;;2.37;;
10537;SDS011;5317;49.048;8.468;2022-07-15T00:10:04;3.33;;;2.73;;
10537;SDS011;5317;49.048;8.468;2022-07-15T00:12:46;3.30;;;2.83;;
10537;SDS011;5317;49.048;8.468;2022-07-15T00:15:16;3.03;;;2.43;;
10537;SDS011;5317;49.048;8.468;2022-07-15T00:17:46;3.37;;;2.90;;
10537;SDS011;5317;49.048;8.468;2022-07-15T00:20:14;3.70;;;2.63;;
10537;SDS011;5317;49.048;8.468;2022-07-15T00:22:42;2.70;;;2.40;;
10537;SDS011;5317;49.048;8.468;2022-07-15T00:25:10;4.07;;;2.50;;
10537;SDS011;5317;49.048;8.468;2022-07-15T00:27:50;4.80;;;2.90;;
10537;SDS011;5317;49.048;8.468;2022-07-15T00:30:20;3.77;;;2.50;;
10537;SDS011;5317;49.048;8.468;2022-07-15T00:32:48;3.30;;;3.00;;
10537;SDS011;5317;49.048;8.468;2022-07-15T00:35:15;3.10;;;2.80;;
10537;SDS011;5317;49.048;8.468;2022-07-15T00:37:43;5.07;;;3.00;;
10537;SDS011;5317;49.048;8.468;2022-07-15T00:40:10;4.43;;;2.67;;
10537;SDS011;5317;49.048;8.468;2022-07-15T00:42:38;3.63;;;2.90;;
10537;SDS011;5317;49.048;8.468;2022-07-15T00:45:13;2.87;;;2.57;;
10537;SDS011;5317;49.048;8.468;2022-07-15T00:47:43;3.07;;;2.60;;
10537;SDS011;5317;49.048;8.468;2022-07-15T00:50:12;2.87;;;2.57;;
10537;SDS011;5317;49.048;8.468;2022-07-15T00:52:41;5.17;;;2.60;;
10537;SDS011;5317;49.048;8.468;2022-07-15T00:55:12;2.93;;;2.60;;
10537;SDS011;5317;49.048;8.468;2022-07-15T00:57:43;4.40;;;3.07;;
10537;SDS011;5317;49.048;8.468;2022-07-15T01:00:13;4.83;;;2.60;;
10537;SDS011;5317;49.048;8.468;2022-07-15T01:02:41;4.10;;;2.80;;
10537;SDS011;5317;49.048;8.468;2022-07-15T01:05:15;3.23;;;2.93;;
10537;SDS011;5317;49.048;8.468;2022-07-15T01:07:45;3.87;;;2.83;;
10537;SDS011;5317;49.048;8.468;2022-07-15T01:10:14;4.17;;;2.93;;
10537;SDS011;5317;49.048;8.468;2022-07-15T01:12:42;4.23;;;3.40;;
10537;SDS011;5317;49.048;8.468;2022-07-15T01:15:14;3.10;;;2.80;;
10537;SDS011;5317;49.048;8.468;2022-07-15T01:17:43;3.40;;;2.90;;
10537;SDS011;5317;49.048;8.468;2022-07-15T01:20:11;5.53;;;2.77;;
10537;SDS011;5317;49.048;8.468;2022-07-15T01:22:42;5.10;;;3.57;;
10537;SDS011;5317;49.048;8.468;2022-07-15T01:25:10;4.07;;;3.13;;
10537;SDS011;5317;49.048;8.468;2022-07-15T01:27:37;3.27;;;2.97;;
10537;SDS011;5317;49.048;8.468;2022-07-15T01:30:05;3.20;;;2.90;;
10537;SDS011;5317;49.048;8.468;2022-07-15T01:32:34;5.30;;;3.20;;
10537;SDS011;5317;49.048;8.468;2022-07-15T01:35:02;3.20;;;2.83;;
10537;SDS011;5317;49.048;8.468;2022-07-15T01:37:30;4.03;;;3.13;;
10537;SDS011;5317;49.048;8.468;2022-07-15T01:39:59;3.53;;;3.13;;
10537;SDS011;5317;49.048;8.468;2022-07-15T01:42:26;3.57;;;3.27;;
10537;SDS011;5317;49.048;8.468;2022-07-15T01:44:53;3.43;;;3.00;;
10537;SDS011;5317;49.048;8.468;2022-07-15T01:47:20;5.47;;;3.07;;
10537;SDS011;5317;49.048;8.468;2022-07-15T01:49:47;3.60;;;3.03;;
10537;SDS011;5317;49.048;8.468;2022-07-15T01:52:15;3.70;;;3.13;;
10537;SDS011;5317;49.048;8.468;2022-07-15T01:54:42;3.57;;;3.00;;
10537;SDS011;5317;49.048;8.468;2022-07-15T01:57:11;3.53;;;3.10;;
10537;SDS011;5317;49.048;8.468;2022-07-15T01:59:39;3.63;;;3.00;;
10537;SDS011;5317;49.048;8.468;2022-07-15T02:02:06;3.40;;;2.80;;
10537;SDS011;5317;49.048;8.468;2022-07-15T02:04:34;3.33;;;3.03;;
10537;SDS011;5317;49.048;8.468;2022-07-15T02:07:02;3.50;;;3.00;;
10537;SDS011;5317;49.048;8.468;2022-07-15T02:09:29;5.23;;;3.30;;
10537;SDS011;5317;49.048;8.468;2022-07-15T02:11:57;3.20;;;2.90;;
10537;SDS011;5317;49.048;8.468;2022-07-15T02:14:25;3.57;;;2.90;;
10537;SDS011;5317;49.048;8.468;2022-07-15T02:16:53;3.20;;;2.90;;
10537;SDS011;5317;49.048;8.468;2022-07-15T02:19:20;3.30;;;3.00;;
10537;SDS011;5317;49.048;8.468;2022-07-15T02:21:48;6.67;;;3.20;;
10537;SDS011;5317;49.048;8.468;2022-07-15T02:24:15;3.43;;;2.90;;
10537;SDS011;5317;49.048;8.468;2022-07-15T02:26:43;3.43;;;2.87;;
10537;SDS011;5317;49.048;8.468;2022-07-15T02:29:11;3.73;;;3.40;;
10537;SDS011;5317;49.048;8.468;2022-07-15T02:31:39;3.40;;;2.80;;
10537;SDS011;5317;49.048;8.468;2022-07-15T02:34:07;3.90;;;3.00;;
10537;SDS011;5317;49.048;8.468;2022-07-15T02:36:35;3.37;;;3.07;;
10537;SDS011;5317;49.048;8.468;2022-07-15T02:39:03;4.60;;;3.03;;
10537;SDS011;5317;49.048;8.468;2022-07-15T02:41:30;4.70;;;3.20;;
10537;SDS011;5317;49.048;8.468;2022-07-15T02:43:57;5.13;;;3.20;;
10537;SDS011;5317;49.048;8.468;2022-07-15T02:46:27;3.63;;;3.33;;
10537;SDS011;5317;49.048;8.468;2022-07-15T02:48:56;4.33;;;3.47;;
10537;SDS011;5317;49.048;8.468;2022-07-15T02:51:23;3.30;;;2.93;;
10537;SDS011;5317;49.048;8.468;2022-07-15T02:53:50;3.43;;;3.03;;
10537;SDS011;5317;49.048;8.468;2022-07-15T02:56:17;4.70;;;3.60;;
10537;SDS011;5317;49.048;8.468;2022-07-15T02:58:44;4.23;;;3.33;;
10537;SDS011;5317;49.048;8.468;2022-07-15T03:01:11;4.60;;;3.40;;
10537;SDS011;5317;49.048;8.468;2022-07-15T03:03:38;3.63;;;3.03;;
10537;SDS011;5317;49.048;8.468;2022-07-15T03:06:07;3.70;;;3.30;;
10537;SDS011;5317;49.048;8.468;2022-07-15T03:08:34;5.00;;;3.20;;
10537;SDS011;5317;49.048;8.468;2022-07-15T03:11:02;4.77;;;2.90;;
10537;SDS011;5317;49.048;8.468;2022-07-15T03:13:29;5.50;;;2.77;;
10537;SDS011;5317;49.048;8.468;2022-07-15T03:15:56;4.33;;;3.20;;
10537;SDS011;5317;49.048;8.468;2022-07-15T03:18:23;3.50;;;3.20;;
10537;SDS011;5317;49.048;8.468;2022-07-15T03:20:50;4.07;;;2.93;;
10537;SDS011;5317;49.048;8.468;2022-07-15T03:23:19;3.27;;;2.97;;
10537;SDS011;5317;49.048;8.468;2022-07-15T03:25:46;4.00;;;3.03;;
10537;SDS011;5317;49.048;8.468;2022-07-15T03:28:14;3.27;;;2.80;;
10537;SDS011;5317;49.048;8.468;2022-07-15T03:30:44;3.30;;;3.00;;
10537;SDS011;5317;49.048;8.468;2022-07-15T03:33:11;3.57;;;3.27;;
10537;SDS011;5317;49.048;8.468;2022-07-15T03:35:38;4.00;;;3.17;;
10537;SDS011;5317;49.048;8.468;2022-07-15T03:38:06;3.87;;;3.27;;
10537;SDS011;5317;49.048;8.468;2022-07-15T03:40:35;4.07;;;3.30;;
10537;SDS011;5317;49.048;8.468;2022-07-15T03:43:03;4.27;;;3.10;;
10537;SDS011;5317;49.048;8.468;2022-07-15T03:45:30;3.30;;;3.00;;
10537;SDS011;5317;49.048;8.468;2022-07-15T03:47:57;3.67;;;3.20;;
10537;SDS011;5317;49.048;8.468;2022-07-15T03:50:24;4.17;;;3.30;;
10537;SDS011;5317;49.048;8.468;2022-07-15T03:52:51;4.80;;;3.40;;
10537;SDS011;5317;49.048;8.468;2022-07-15T03:55:18;4.30;;;3.30;;
10537;SDS011;5317;49.048;8.468;2022-07-15T03:57:47;3.37;;;3.07;;
10537;SDS011;5317;49.048;8.468;2022-07-15T04:00:15;5.03;;;3.20;;
10537;SDS011;5317;49.048;8.468;2022-07-15T04:02:42;3.47;;;3.17;;
10537;SDS011;5317;49.048;8.468;2022-07-15T04:05:09;4.73;;;3.37;;
10537;SDS011;5317;49.048;8.468;2022-07-15T04:07:37;3.37;;;2.90;;
10537;SDS011;5317;49.048;8.468;2022-07-15T04:10:04;5.93;;;3.73;;
10537;SDS011;5317;49.048;8.468;2022-07-15T04:12:33;5.07;;;4.13;;
10537;SDS011;5317;49.048;8.468;2022-07-15T04:15:02;4.27;;;3.17;;
10537;SDS011;5317;49.048;8.468;2022-07-15T04:17:30;4.63;;;3.30;;
10537;SDS011;5317;49.048;8.468;2022-07-15T04:19:58;4.17;;;3.20;;
10537;SDS011;5317;49.048;8.468;2022-07-15T04:22:28;3.43;;;3.13;;
10537;SDS011;5317;49.048;8.468;2022-07-15T04:24:56;3.70;;;3.33;;
10537;SDS011;5317;49.048;8.468;2022-07-15T04:27:23;5.93;;;3.27;;
10537;SDS011;5317;49.048;8.468;2022-07-15T04:29:51;4.17;;;3.53;;
10537;SDS011;5317;49.048;8.468;2022-07-15T04:32:19;3.80;;;3.37;;
10537;SDS011;5317;49.048;8.468;2022-07-15T04:34:46;4.43;;;3.87;;
10537;SDS011;5317;49.048;8.468;2022-07-15T04:37:13;8.50;;;3.83;;
10537;SDS011;5317;49.048;8.468;2022-07-15T04:39:41;8.07;;;4.07;;
10537;SDS011;5317;49.048;8.468;2022-07-15T04:42:08;9.50;;;4.87;;
10537;SDS011;5317;49.048;8.468;2022-07-15T04:44:35;7.07;;;5.10;;
10537;SDS011;5317;49.048;8.468;2022-07-15T04:47:02;4.97;;;4.00;;
10537;SDS011;5317;49.048;8.468;2022-07-15T04:49:30;4.47;;;3.77;;
10537;SDS011;5317;49.048;8.468;2022-07-15T04:52:15;4.63;;;3.70;;
10537;SDS011;5317;49.048;8.468;2022-07-15T04:54:43;5.17;;;4.10;;
10537;SDS011;5317;49.048;8.468;2022-07-15T04:57:10;13.27;;;5.47;;
10537;SDS011;5317;49.048;8.468;2022-07-15T04:59:37;11.63;;;5.07;;
10537;SDS011;5317;49.048;8.468;2022-07-15T05:02:05;5.63;;;4.00;;
10537;SDS011;5317;49.048;8.468;2022-07-15T05:04:33;4.87;;;3.80;;
10537;SDS011;5317;49.048;8.468;2022-07-15T05:07:00;5.20;;;4.20;;
10537;SDS011;5317;49.048;8.468;2022-07-15T05:09:28;6.10;;;4.57;;
10537;SDS011;5317;49.048;8.468;2022-07-15T05:11:55;4.03;;;3.63;;
10537;SDS011;5317;49.048;8.468;2022-07-15T05:14:22;5.77;;;4.17;;
10537;SDS011;5317;49.048;8.468;2022-07-15T05:16:51;4.57;;;4.10;;
10537;SDS011;5317;49.048;8.468;2022-07-15T05:19:18;4.63;;;3.97;;
10537;SDS011;5317;49.048;8.468;2022-07-15T05:21:47;4.70;;;4.30;;
10537;SDS011;5317;49.048;8.468;2022-07-15T05:24:14;4.03;;;3.67;;
10537;SDS011;5317;49.048;8.468;2022-07-15T05:26:41;5.03;;;4.20;;
10537;SDS011;5317;49.048;8.468;2022-07-15T05:29:08;6.00;;;4.33;;
10537;SDS011;5317;49.048;8.468;2022-07-15T05:31:36;4.90;;;3.90;;
10537;SDS011;5317;49.048;8.468;2022-07-15T05:34:03;5.23;;;4.50;;
10537;SDS011;5317;49.048;8.468;2022-07-15T05:36:30;4.13;;;3.73;;
10537;SDS011;5317;49.048;8.468;2022-07-15T05:38:59;4.80;;;4.30;;
10537;SDS011;5317;49.048;8.468;2022-07-15T05:41:26;4.60;;;3.57;;
10537;SDS011;5317;49.048;8.468;2022-07-15T05:43:53;4.77;;;3.60;;
10537;SDS011;5317;49.048;8.468;2022-07-15T05:46:20;5.37;;;3.60;;
10537;SDS011;5317;49.048;8.468;2022-07-15T05:48:48;4.33;;;3.70;;
10537;SDS011;5317;49.048;8.468;2022-07-15T05:51:15;3.83;;;3.43;;
10537;SDS011;5317;49.048;8.468;2022-07-15T05:53:42;3.63;;;2.90;;
10537;SDS011;5317;49.048;8.468;2022-07-15T05:56:10;4.80;;;3.00;;
10537;SDS011;5317;49.048;8.468;2022-07-15T05:58:38;2.80;;;2.60;;
10537;SDS011;5317;49.048;8.468;2022-07-15T06:01:05;3.63;;;2.80;;
10537;SDS011;5317;49.048;8.468;2022-07-15T06:03:32;4.70;;;2.90;;
10537;SDS011;5317;49.048;8.468;2022-07-15T06:05:59;2.93;;;2.47;;
10537;SDS011;5317;49.048;8.468;2022-07-15T06:08:26;4.93;;;2.33;;
10537;SDS011;5317;49.048;8.468;2022-07-15T06:10:54;2.90;;;2.30;;
10537;SDS011;5317;49.048;8.468;2022-07-15T06:13:23;3.77;;;2.30;;
10537;SDS011;5317;49.048;8.468;2022-07-15T06:15:50;2.77;;;2.40;;
10537;SDS011;5317;49.048;8.468;2022-07-15T06:18:17;4.03;;;2.30;;
10537;SDS011;5317;49.048;8.468;2022-07-15T06:20:44;3.33;;;2.10;;
10537;SDS011;5317;49.048;8.468;2022-07-15T06:23:12;3.33;;;2.30;;
10537;SDS011;5317;49.048;8.468;2022-07-15T06:25:39;2.60;;;1.90;;
10537;SDS011;5317;49.048;8.468;2022-07-15T06:28:07;2.93;;;2.10;;
10537;SDS011;5317;49.048;8.468;2022-07-15T06:30:36;2.70;;;2.07;;
10537;SDS011;5317;49.048;8.468;2022-07-15T06:33:03;3.20;;;2.00;;
10537;SDS011;5317;49.048;8.468;2022-07-15T06:35:30;2.97;;;2.10;;
10537;SDS011;5317;49.048;8.468;2022-07-15T06:37:57;2.43;;;2.23;;
10537;SDS011;5317;49.048;8.468;2022-07-15T06:40:25;2.33;;;2.03;;
10537;SDS011;5317;49.048;8.468;2022-07-15T06:42:52;3.03;;;2.00;;
10537;SDS011;5317;49.048;8.468;2022-07-15T06:45:19;2.50;;;2.20;;
10537;SDS011;5317;49.048;8.468;2022-07-15T06:47:47;4.60;;;2.07;;
10537;SDS011;5317;49.048;8.468;2022-07-15T06:50:15;2.90;;;1.90;;
10537;SDS011;5317;49.048;8.468;2022-07-15T06:52:42;2.90;;;1.70;;
10537;SDS011;5317;49.048;8.468;2022-07-15T06:55:09;3.47;;;1.83;;
10537;SDS011;5317;49.048;8.468;2022-07-15T06:57:36;2.03;;;1.80;;
10537;SDS011;5317;49.048;8.468;2022-07-15T07:00:05;2.47;;;1.70;;
10537;SDS011;5317;49.048;8.468;2022-07-15T07:02:35;2.23;;;2.03;;
10537;SDS011;5317;49.048;8.468;2022-07-15T07:05:04;2.27;;;1.90;;
10537;SDS011;5317;49.048;8.468;2022-07-15T07:07:33;2.70;;;1.70;;
10537;SDS011;5317;49.048;8.468;2022-07-15T07:10:01;2.10;;;1.90;;
10537;SDS011;5317;49.048;8.468;2022-07-15T07:12:28;2.93;;;1.80;;
10537;SDS011;5317;49.048;8.468;2022-07-15T07:14:56;2.27;;;1.77;;
10537;SDS011;5317;49.048;8.468;2022-07-15T07:17:26;4.43;;;1.90;;
10537;SDS011;5317;49.048;8.468;2022-07-15T07:19:53;3.50;;;2.00;;
10537;SDS011;5317;49.048;8.468;2022-07-15T07:22:22;3.70;;;2.40;;
10537;SDS011;5317;49.048;8.468;2022-07-15T07:24:49;3.37;;;1.83;;
10537;SDS011;5317;49.048;8.468;2022-07-15T07:27:18;2.30;;;1.70;;
10537;SDS011;5317;49.048;8.468;2022-07-15T07:29:45;3.60;;;2.07;;
10537;SDS011;5317;49.048;8.468;2022-07-15T07:32:16;2.17;;;1.80;;
10537;SDS011;5317;49.048;8.468;2022-07-15T07:34:44;3.37;;;2.00;;
10537;SDS011;5317;49.048;8.468;2022-07-15T07:37:11;1.90;;;1.80;;
10537;SDS011;5317;49.048;8.468;2022-07-15T07:39:40;3.00;;;1.97;;
10537;SDS011;5317;49.048;8.468;2022-07-15T07:42:07;2.40;;;1.53;;
10537;SDS011;5317;49.048;8.468;2022-07-15T07:44:35;3.67;;;1.80;;
10537;SDS011;5317;49.048;8.468;2022-07-15T07:47:02;1.70;;;1.60;;
10537;SDS011;5317;49.048;8.468;2022-07-15T07:49:30;2.53;;;2.00;;
10537;SDS011;5317;49.048;8.468;2022-07-15T07:51:57;1.60;;;1.43;;
10537;SDS011;5317;49.048;8.468;2022-07-15T07:54:24;2.97;;;1.63;;
10537;SDS011;5317;49.048;8.468;2022-07-15T07:56:53;2.43;;;1.80;;
10537;SDS011;5317;49.048;8.468;2022-07-15T07:59:20;3.53;;;1.80;;
10537;SDS011;5317;49.048;8.468;2022-07-15T08:01:48;3.97;;;1.87;;
10537;SDS011;5317;49.048;8.468;2022-07-15T08:04:15;2.73;;;1.37;;
10537;SDS011;5317;49.048;8.468;2022-07-15T08:06:45;1.80;;;1.70;;
10537;SDS011;5317;49.048;8.468;2022-07-15T08:09:12;3.47;;;1.67;;
10537;SDS011;5317;49.048;8.468;2022-07-15T08:11:40;3.47;;;1.50;;
10537;SDS011;5317;49.048;8.468;2022-07-15T08:14:09;2.27;;;1.70;;
10537;SDS011;5317;49.048;8.468;2022-07-15T08:16:36;2.20;;;1.50;;
10537;SDS011;5317;49.048;8.468;2022-07-15T08:19:07;1.60;;;1.10;;
10537;SDS011;5317;49.048;8.468;2022-07-15T08:21:38;2.67;;;1.70;;
10537;SDS011;5317;49.048;8.468;2022-07-15T08:24:08;2.13;;;1.80;;
10537;SDS011;5317;49.048;8.468;2022-07-15T08:26:37;1.50;;;1.40;;
10537;SDS011;5317;49.048;8.468;2022-07-15T08:29:05;2.60;;;1.70;;
10537;SDS011;5317;49.048;8.468;2022-07-15T08:31:34;3.87;;;1.77;;
10537;SDS011;5317;49.048;8.468;2022-07-15T08:34:02;2.03;;;1.50;;
10537;SDS011;5317;49.048;8.468;2022-07-15T08:36:31;4.10;;;1.40;;
10537;SDS011;5317;49.048;8.468;2022-07-15T08:38:58;2.63;;;1.50;;
10537;SDS011;5317;49.048;8.468;2022-07-15T08:41:25;1.67;;;1.50;;
10537;SDS011;5317;49.048;8.468;2022-07-15T08:43:53;3.53;;;1.60;;
10537;SDS011;5317;49.048;8.468;2022-07-15T08:46:20;1.83;;;1.30;;
10537;SDS011;5317;49.048;8.468;2022-07-15T08:48:53;1.93;;;1.40;;
10537;SDS011;5317;49.048;8.468;2022-07-15T08:51:30;2.97;;;1.73;;
10537;SDS011;5317;49.048;8.468;2022-07-15T08:54:03;2.67;;;1.40;;
10537;SDS011;5317;49.048;8.468;2022-07-15T08:56:31;1.97;;;1.53;;
10537;SDS011;5317;49.048;8.468;2022-07-15T08:59:00;2.07;;;1.50;;
10537;SDS011;5317;49.048;8.468;2022-07-15T09:01:29;2.73;;;1.70;;
10537;SDS011;5317;49.048;8.468;2022-07-15T09:04:00;4.23;;;1.67;;
10537;SDS011;5317;49.048;8.468;2022-07-15T09:06:31;2.10;;;1.40;;
10537;SDS011;5317;49.048;8.468;2022-07-15T09:09:12;2.63;;;1.40;;
10537;SDS011;5317;49.048;8.468;2022-07-15T09:12:00;2.07;;;1.87;;
10537;SDS011;5317;49.048;8.468;2022-07-15T09:14:32;2.43;;;1.57;;
10537;SDS011;5317;49.048;8.468;2022-07-15T09:17:05;2.80;;;1.63;;
10537;SDS011;5317;49.048;8.468;2022-07-15T09:19:57;2.07;;;1.80;;
10537;SDS011;5317;49.048;8.468;2022-07-15T09:22:29;4.47;;;1.80;;
10537;SDS011;5317;49.048;8.468;2022-07-15T09:25:05;2.60;;;1.60;;
10537;SDS011;5317;49.048;8.468;2022-07-15T09:27:35;2.57;;;1.70;;
10537;SDS011;5317;49.048;8.468;2022-07-15T09:30:14;3.13;;;1.70;;
10537;SDS011;5317;49.048;8.468;2022-07-15T09:33:05;4.63;;;1.90;;
10537;SDS011;5317;49.048;8.468;2022-07-15T09:35:53;2.10;;;1.70;;
10537;SDS011;5317;49.048;8.468;2022-07-15T09:38:37;1.97;;;1.43;;
10537;SDS011;5317;49.048;8.468;2022-07-15T09:41:31;2.27;;;1.63;;
10537;SDS011;5317;49.048;8.468;2022-07-15T09:44:02;2.57;;;1.70;;
10537;SDS011;5317;49.048;8.468;2022-07-15T09:46:41;2.23;;;1.40;;
10537;SDS011;5317;49.048;8.468;2022-07-15T09:49:14;4.03;;;1.80;;
10537;SDS011;5317;49.048;8.468;2022-07-15T09:51:46;1.80;;;1.70;;
10537;SDS011;5317;49.048;8.468;2022-07-15T09:54:15;4.00;;;1.40;;
10537;SDS011;5317;49.048;8.468;2022-07-15T09:56:44;4.33;;;1.87;;
10537;SDS011;5317;49.048;8.468;2022-07-15T09:59:12;1.73;;;1.50;;
10537;SDS011;5317;49.048;8.468;2022-07-15T10:01:41;2.27;;;1.50;;
10537;SDS011;5317;49.048;8.468;2022-07-15T10:04:14;3.03;;;1.70;;
10537;SDS011;5317;49.048;8.468;2022-07-15T10:06:43;2.13;;;1.70;;
10537;SDS011;5317;49.048;8.468;2022-07-15T10:09:15;2.50;;;1.67;;
10537;SDS011;5317;49.048;8.468;2022-07-15T10:11:50;4.00;;;1.80;;
10537;SDS011;5317;49.048;8.468;2022-07-15T10:14:35;2.07;;;1.60;;
10537;SDS011;5317;49.048;8.468;2022-07-15T10:17:27;2.80;;;1.70;;
10537;SDS011;5317;49.048;8.468;2022-07-15T10:20:17;1.60;;;1.50;;
10537;SDS011;5317;49.048;8.468;2022-07-15T10:23:19;3.27;;;1.57;;
10537;SDS011;5317;49.048;8.468;2022-07-15T10:26:16;2.73;;;1.63;;
10537;SDS011;5317;49.048;8.468;2022-07-15T10:29:01;2.90;;;2.30;;
10537;SDS011;5317;49.048;8.468;2022-07-15T10:31:34;3.90;;;1.60;;
10537;SDS011;5317;49.048;8.468;2022-07-15T10:34:15;1.47;;;1.37;;
10537;SDS011;5317;49.048;8.468;2022-07-15T10:37:04;1.70;;;1.50;;
10537;SDS011;5317;49.048;8.468;2022-07-15T10:39:55;1.50;;;1.27;;
10537;SDS011;5317;49.048;8.468;2022-07-15T10:45:30;4.77;;;2.03;;
10537;SDS011;5317;49.048;8.468;2022-07-15T10:50:56;3.20;;;2.13;;
10537;SDS011;5317;49.048;8.468;2022-07-15T10:53:24;1.87;;;1.77;;
10537;SDS011;5317;49.048;8.468;2022-07-15T10:55:54;3.10;;;1.60;;
10537;SDS011;5317;49.048;8.468;2022-07-15T10:58:21;1.90;;;1.80;;
10537;SDS011;5317;49.048;8.468;2022-07-15T11:00:48;2.90;;;1.87;;
10537;SDS011;5317;49.048;8.468;2022-07-15T11:03:18;3.37;;;1.50;;
10537;SDS011;5317;49.048;8.468;2022-07-15T11:06:03;4.13;;;1.80;;
10537;SDS011;5317;49.048;8.468;2022-07-15T11:17:18;1.73;;;1.40;;
10537;SDS011;5317;49.048;8.468;2022-07-15T11:19:49;2.60;;;1.87;;
10537;SDS011;5317;49.048;8.468;2022-07-15T11:22:20;3.57;;;1.70;;
10537;SDS011;5317;49.048;8.468;2022-07-15T11:24:49;2.13;;;1.93;;
10537;SDS011;5317;49.048;8.468;2022-07-15T11:27:19;1.67;;;1.23;;
10537;SDS011;5317;49.048;8.468;2022-07-15T11:29:48;3.47;;;2.00;;
10537;SDS011;5317;49.048;8.468;2022-07-15T11:32:19;6.83;;;2.20;;
10537;SDS011;5317;49.048;8.468;2022-07-15T11:34:51;1.80;;;1.60;;
10537;SDS011;5317;49.048;8.468;2022-07-15T11:37:23;2.10;;;1.90;;
10537;SDS011;5317;49.048;8.468;2022-07-15T11:40:03;5.73;;;1.87;;
10537;SDS011;5317;49.048;8.468;2022-07-15T11:42:36;3.90;;;1.90;;
10537;SDS011;5317;49.048;8.468;2022-07-15T11:45:32;2.73;;;2.03;;
10537;SDS011;5317;49.048;8.468;2022-07-15T11:48:03;3.87;;;1.73;;
10537;SDS011;5317;49.048;8.468;2022-07-15T11:50:32;3.00;;;1.70;;
10537;SDS011;5317;49.048;8.468;2022-07-15T11:53:01;3.77;;;1.57;;
10537;SDS011;5317;49.048;8.468;2022-07-15T11:55:46;2.70;;;1.70;;
10537;SDS011;5317;49.048;8.468;2022-07-15T12:01:04;4.27;;;2.00;;
10537;SDS011;5317;49.048;8.468;2022-07-15T12:03:35;1.93;;;1.60;;
10537;SDS011;5317;49.048;8.468;2022-07-15T12:06:08;2.30;;;1.63;;
10537;SDS011;5317;49.048;8.468;2022-07-15T12:08:43;2.67;;;1.60;;
10537;SDS011;5317;49.048;8.468;2022-07-15T12:11:20;2.83;;;1.70;;
10537;SDS011;5317;49.048;8.468;2022-07-15T12:13:53;3.83;;;1.90;;
10537;SDS011;5317;49.048;8.468;2022-07-15T12:16:25;3.50;;;1.80;;
10537;SDS011;5317;49.048;8.468;2022-07-15T12:18:56;3.67;;;1.87;;
10537;SDS011;5317;49.048;8.468;2022-07-15T12:21:26;2.47;;;1.90;;
10537;SDS011;5317;49.048;8.468;2022-07-15T12:23:57;1.73;;;1.47;;
10537;SDS011;5317;49.048;8.468;2022-07-15T12:26:34;2.17;;;1.83;;
10537;SDS011;5317;49.048;8.468;2022-07-15T12:29:11;1.90;;;1.60;;
10537;SDS011;5317;49.048;8.468;2022-07-15T12:31:39;2.40;;;1.67;;
10537;SDS011;5317;49.048;8.468;2022-07-15T12:34:08;4.67;;;1.73;;
10537;SDS011;5317;49.048;8.468;2022-07-15T12:36:36;1.93;;;1.53;;
10537;SDS011;5317;49.048;8.468;2022-07-15T12:39:08;4.23;;;2.00;;
10537;SDS011;5317;49.048;8.468;2022-07-15T12:41:44;2.00;;;1.73;;
10537;SDS011;5317;49.048;8.468;2022-07-15T12:44:25;2.37;;;1.60;;
10537;SDS011;5317;49.048;8.468;2022-07-15T12:46:54;1.70;;;1.60;;
10537;SDS011;5317;49.048;8.468;2022-07-15T12:49:43;3.00;;;1.77;;
10537;SDS011;5317;49.048;8.468;2022-07-15T12:52:19;2.60;;;1.73;;
10537;SDS011;5317;49.048;8.468;2022-07-15T12:54:51;2.60;;;1.80;;
10537;SDS011;5317;49.048;8.468;2022-07-15T12:57:21;3.10;;;1.70;;
10537;SDS011;5317;49.048;8.468;2022-07-15T12:59:55;3.13;;;1.70;;
10537;SDS011;5317;49.048;8.468;2022-07-15T13:02:24;2.30;;;1.80;;
10537;SDS011;5317;49.048;8.468;2022-07-15T13:04:53;3.53;;;1.60;;
10537;SDS011;5317;49.048;8.468;2022-07-15T13:07:20;3.77;;;2.00;;
10537;SDS011;5317;49.048;8.468;2022-07-15T13:09:47;2.37;;;2.03;;
10537;SDS011;5317;49.048;8.468;2022-07-15T13:12:14;2.70;;;1.70;;
10537;SDS011;5317;49.048;8.468;2022-07-15T13:14:42;1.97;;;1.70;;
10537;SDS011;5317;49.048;8.468;2022-07-15T13:17:11;1.90;;;1.50;;
10537;SDS011;5317;49.048;8.468;2022-07-15T13:19:38;3.57;;;2.20;;
10537;SDS011;5317;49.048;8.468;2022-07-15T13:22:05;3.23;;;1.80;;
10537;SDS011;5317;49.048;8.468;2022-07-15T13:24:32;2.53;;;1.97;;
10537;SDS011;5317;49.048;8.468;2022-07-15T13:27:02;1.93;;;1.70;;
10537;SDS011;5317;49.048;8.468;2022-07-15T13:29:30;3.33;;;1.70;;
10537;SDS011;5317;49.048;8.468;2022-07-15T13:31:57;2.43;;;1.90;;
10537;SDS011;5317;49.048;8.468;2022-07-15T13:34:25;2.63;;;1.60;;
10537;SDS011;5317;49.048;8.468;2022-07-15T13:36:52;1.70;;;1.60;;
10537;SDS011;5317;49.048;8.468;2022-07-15T13:39:20;3.33;;;1.80;;
10537;SDS011;5317;49.048;8.468;2022-07-15T13:41:47;2.47;;;1.80;;
10537;SDS011;5317;49.048;8.468;2022-07-15T13:44:14;3.30;;;1.80;;
10537;SDS011;5317;49.048;8.468;2022-07-15T13:46:41;2.90;;;1.83;;
10537;SDS011;5317;49.048;8.468;2022-07-15T13:49:08;2.43;;;1.63;;
10537;SDS011;5317;49.048;8.468;2022-07-15T13:51:37;2.00;;;1.73;;
10537;SDS011;5317;49.048;8.468;2022-07-15T13:54:05;2.13;;;1.80;;
10537;SDS011;5317;49.048;8.468;2022-07-15T13:56:34;2.33;;;1.90;;
10537;SDS011;5317;49.048;8.468;2022-07-15T13:59:02;2.97;;;1.73;;
10537;SDS011;5317;49.048;8.468;2022-07-15T14:01:30;2.83;;;1.80;;
10537;SDS011;5317;49.048;8.468;2022-07-15T14:03:57;2.17;;;1.80;;
10537;SDS011;5317;49.048;8.468;2022-07-15T14:06:25;2.70;;;1.80;;
10537;SDS011;5317;49.048;8.468;2022-07-15T14:08:53;2.07;;;1.70;;
10537;SDS011;5317;49.048;8.468;2022-07-15T14:11:20;1.80;;;1.70;;
10537;SDS011;5317;49.048;8.468;2022-07-15T14:13:47;2.90;;;1.80;;
10537;SDS011;5317;49.048;8.468;2022-07-15T14:16:15;3.20;;;2.03;;
10537;SDS011;5317;49.048;8.468;2022-07-15T14:18:42;1.97;;;1.70;;
10537;SDS011;5317;49.048;8.468;2022-07-15T14:21:11;2.90;;;1.77;;
10537;SDS011;5317;49.048;8.468;2022-07-15T14:23:40;1.93;;;1.77;;
10537;SDS011;5317;49.048;8.468;2022-07-15T14:26:09;2.17;;;1.80;;
10537;SDS011;5317;49.048;8.468;2022-07-15T14:28:38;3.20;;;1.80;;
10537;SDS011;5317;49.048;8.468;2022-07-15T14:31:07;3.30;;;1.70;;
10537;SDS011;5317;49.048;8.468;2022-07-15T14:33:37;2.30;;;1.80;;
10537;SDS011;5317;49.048;8.468;2022-07-15T14:36:06;2.07;;;1.90;;
10537;SDS011;5317;49.048;8.468;2022-07-15T14:38:34;2.10;;;1.87;;
10537;SDS011;5317;49.048;8.468;2022-07-15T14:41:02;2.83;;;1.87;;
10537;SDS011;5317;49.048;8.468;2022-07-15T14:43:30;2.93;;;1.70;;
10537;SDS011;5317;49.048;8.468;2022-07-15T14:45:58;3.70;;;1.90;;
10537;SDS011;5317;49.048;8.468;2022-07-15T14:48:26;2.10;;;1.80;;
10537;SDS011;5317;49.048;8.468;2022-07-15T14:50:54;2.97;;;2.00;;
10537;SDS011;5317;49.048;8.468;2022-07-15T14:53:22;1.87;;;1.60;;
10537;SDS011;5317;49.048;8.468;2022-07-15T14:55:49;2.07;;;1.83;;
10537;SDS011;5317;49.048;8.468;2022-07-15T14:58:16;3.87;;;1.67;;
10537;SDS011;5317;49.048;8.468;2022-07-15T15:00:46;2.13;;;1.60;;
10537;SDS011;5317;49.048;8.468;2022-07-15T15:03:14;2.90;;;1.67;;
10537;SDS011;5317;49.048;8.468;2022-07-15T15:05:42;3.50;;;1.80;;
10537;SDS011;5317;49.048;8.468;2022-07-15T15:08:09;2.27;;;1.60;;
10537;SDS011;5317;49.048;8.468;2022-07-15T15:10:37;2.50;;;2.00;;
10537;SDS011;5317;49.048;8.468;2022-07-15T15:13:05;2.80;;;1.70;;
10537;SDS011;5317;49.048;8.468;2022-07-15T15:15:34;2.27;;;1.80;;
10537;SDS011;5317;49.048;8.468;2022-07-15T15:18:03;4.20;;;1.80;;
10537;SDS011;5317;49.048;8.468;2022-07-15T15:20:30;2.20;;;2.00;;
10537;SDS011;5317;49.048;8.468;2022-07-15T15:22:57;2.33;;;2.00;;
10537;SDS011;5317;49.048;8.468;2022-07-15T15:25:24;2.00;;;1.80;;
10537;SDS011;5317;49.048;8.468;2022-07-15T15:28:09;2.17;;;1.97;;
10537;SDS011;5317;49.048;8.468;2022-07-15T15:30:36;3.43;;;1.93;;
10537;SDS011;5317;49.048;8.468;2022-07-15T15:33:05;2.37;;;1.93;;